createdAt,value
2018-08-04T00:00:14.131Z,48.20
2018-08-04T00:02:42.609Z,48.10
2018-08-04T00:05:11.367Z,48.20
2018-08-04T00:07:40.107Z,48.10
2018-08-04T00:10:15.911Z,48.30
2018-08-04T00:12:44.714Z,48.40
2018-08-04T00:15:13.171Z,48.40
2018-08-04T00:17:41.567Z,48.00
2018-08-04T00:20:10.044Z,48.10
2018-08-04T00:22:38.461Z,48.40
2018-08-04T00:25:06.913Z,48.60
2018-08-04T00:27:35.343Z,48.60
2018-08-04T00:30:03.877Z,48.80
2018-08-04T00:32:32.260Z,48.70
2018-08-04T00:35:00.664Z,49.00
2018-08-04T00:37:29.028Z,48.90
2018-08-04T00:39:57.426Z,48.90
2018-08-04T00:42:25.815Z,49.20
2018-08-04T00:44:54.214Z,49.20
2018-08-04T00:47:22.616Z,49.50
2018-08-04T00:49:50.998Z,49.80
2018-08-04T00:52:19.364Z,49.40
2018-08-04T00:54:47.758Z,49.70
2018-08-04T00:57:16.386Z,49.70
2018-08-04T00:59:44.753Z,49.90
2018-08-04T01:02:13.138Z,50.00
2018-08-04T01:04:41.565Z,50.00
2018-08-04T01:07:10.001Z,49.90
2018-08-04T01:12:06.537Z,49.90
2018-08-04T01:14:34.955Z,49.80
2018-08-04T01:17:03.418Z,49.70
2018-08-04T01:19:31.838Z,49.60
2018-08-04T01:22:00.268Z,49.60
2018-08-04T01:26:56.698Z,49.50
2018-08-04T01:29:25.019Z,49.50
2018-08-04T01:31:53.401Z,49.40
2018-08-04T01:34:21.817Z,49.10
2018-08-04T01:36:50.195Z,49.20
2018-08-04T01:39:18.599Z,49.20
2018-08-04T01:41:46.987Z,49.30
2018-08-04T01:46:43.452Z,49.20
2018-08-04T01:51:39.951Z,49.00
2018-08-04T01:54:08.357Z,49.30
2018-08-04T01:56:36.757Z,49.10
2018-08-04T01:59:05.147Z,49.20
2018-08-04T02:01:33.518Z,49.20
2018-08-04T02:04:01.936Z,49.10
2018-08-04T02:06:30.314Z,48.90
2018-08-04T02:08:58.678Z,48.90
2018-08-04T02:11:27.103Z,48.60
2018-08-04T02:13:55.507Z,48.90
2018-08-04T02:16:23.935Z,49.10
2018-08-04T02:18:52.359Z,49.30
2018-08-04T02:21:20.731Z,49.70
2018-08-04T02:23:49.124Z,49.60
2018-08-04T02:28:45.565Z,49.80
2018-08-04T02:31:13.944Z,49.80
2018-08-04T02:33:42.320Z,49.50
2018-08-04T02:36:10.729Z,50.20
2018-08-04T02:41:07.336Z,49.90
2018-08-04T02:43:35.764Z,50.00
2018-08-04T02:46:04.148Z,50.20
2018-08-04T02:48:32.567Z,50.00
2018-08-04T02:51:01.048Z,50.30
2018-08-04T02:53:29.480Z,50.40
2018-08-04T02:55:57.852Z,50.30
2018-08-04T02:58:26.272Z,50.10
2018-08-04T03:00:54.676Z,50.50
2018-08-04T03:03:23.087Z,50.60
2018-08-04T03:05:51.482Z,50.40
2018-08-04T03:08:19.897Z,50.50
2018-08-04T03:10:48.332Z,50.50
2018-08-04T03:13:16.761Z,50.60
2018-08-04T03:15:45.175Z,50.70
2018-08-04T03:18:13.552Z,50.80
2018-08-04T03:20:41.941Z,50.90
2018-08-04T03:23:10.373Z,50.90
2018-08-04T03:25:38.761Z,51.30
2018-08-04T03:28:07.135Z,50.90
2018-08-04T03:30:35.542Z,51.20
2018-08-04T03:33:03.903Z,50.80
2018-08-04T03:35:32.269Z,51.10
2018-08-04T03:38:00.671Z,50.90
2018-08-04T03:40:29.075Z,51.40
2018-08-04T03:42:57.456Z,51.30
2018-08-04T03:45:25.898Z,51.20
2018-08-04T03:47:54.294Z,51.30
2018-08-04T03:50:22.672Z,51.10
2018-08-04T03:52:51.119Z,51.20
2018-08-04T03:55:19.501Z,51.30
2018-08-04T03:57:47.957Z,50.70
2018-08-04T04:00:16.347Z,50.50
2018-08-04T04:02:44.738Z,50.50
2018-08-04T04:05:13.136Z,50.50
2018-08-04T04:07:41.493Z,50.70
2018-08-04T04:10:09.903Z,51.00
2018-08-04T04:12:38.271Z,51.00
2018-08-04T04:15:06.869Z,50.50
2018-08-04T04:17:41.984Z,50.50
2018-08-04T04:20:10.395Z,50.40
2018-08-04T04:22:38.741Z,50.30
2018-08-04T04:25:07.109Z,50.20
2018-08-04T04:27:35.941Z,50.30
2018-08-04T04:30:04.624Z,50.30
2018-08-04T04:32:33.146Z,49.80
2018-08-04T04:35:01.633Z,49.60
2018-08-04T04:37:30.176Z,48.80
2018-08-04T04:39:58.614Z,49.10
2018-08-04T04:42:27.003Z,49.10
2018-08-04T04:44:55.372Z,48.90
2018-08-04T04:47:23.761Z,48.20
2018-08-04T04:49:52.154Z,47.80
2018-08-04T04:52:20.535Z,47.90
2018-08-04T04:54:48.958Z,47.50
2018-08-04T04:57:17.307Z,46.90
2018-08-04T04:59:45.748Z,47.00
2018-08-04T05:02:14.110Z,46.80
2018-08-04T05:04:42.503Z,46.30
2018-08-04T05:07:10.925Z,46.00
2018-08-04T05:09:39.307Z,46.40
2018-08-04T05:12:07.685Z,45.70
2018-08-04T05:14:36.067Z,45.50
2018-08-04T05:17:04.559Z,45.50
2018-08-04T05:22:01.103Z,44.60
2018-08-04T05:24:29.443Z,45.20
2018-08-04T05:26:57.877Z,44.10
2018-08-04T05:29:26.339Z,43.90
2018-08-04T05:31:54.774Z,44.00
2018-08-04T05:34:23.139Z,43.20
2018-08-04T05:36:51.500Z,43.00
2018-08-04T05:39:19.896Z,43.30
2018-08-04T05:41:48.300Z,43.10
2018-08-04T05:44:16.698Z,42.00
2018-08-04T05:46:45.120Z,42.50
2018-08-04T05:51:41.800Z,42.60
2018-08-04T05:54:10.150Z,41.20
2018-08-04T05:56:38.525Z,42.70
2018-08-04T05:59:07.002Z,42.40
2018-08-04T06:04:03.601Z,40.60
2018-08-04T06:06:32.094Z,39.70
2018-08-04T06:09:00.530Z,40.10
2018-08-04T06:11:28.906Z,39.50
2018-08-04T06:13:57.272Z,40.20
2018-08-04T06:18:53.715Z,39.00
2018-08-04T06:21:22.102Z,39.70
2018-08-04T06:26:18.578Z,38.90
2018-08-04T06:28:46.993Z,38.80
2018-08-04T06:31:15.384Z,37.20
2018-08-04T06:33:43.806Z,36.00
2018-08-04T06:36:12.242Z,36.40
2018-08-04T06:38:40.641Z,38.20
2018-08-04T06:41:08.986Z,36.00
2018-08-04T06:43:37.357Z,37.60
2018-08-04T06:46:06.005Z,37.10
2018-08-04T06:48:34.358Z,37.80
2018-08-04T06:51:02.759Z,37.60
2018-08-04T06:53:31.137Z,37.40
2018-08-04T06:55:59.516Z,38.90
2018-08-04T06:58:28.002Z,37.90
2018-08-04T07:00:56.327Z,38.30
2018-08-04T07:03:24.693Z,36.50
2018-08-04T07:05:53.115Z,35.70
2018-08-04T07:08:21.475Z,35.60
2018-08-04T07:10:49.910Z,34.10
2018-08-04T07:13:18.337Z,35.40
2018-08-04T07:15:46.793Z,36.40
2018-08-04T07:18:15.207Z,34.70
2018-08-04T07:20:43.580Z,33.80
2018-08-04T07:23:12.032Z,34.60
2018-08-04T07:25:40.409Z,35.80
2018-08-04T07:28:08.861Z,37.40
2018-08-04T07:30:37.232Z,35.40
2018-08-04T07:33:05.923Z,34.30
2018-08-04T07:35:34.319Z,32.90
2018-08-04T07:38:02.748Z,32.80
2018-08-04T07:40:31.172Z,32.70
2018-08-04T07:42:59.540Z,32.50
2018-08-04T07:45:27.930Z,32.20
2018-08-04T07:47:56.279Z,33.30
2018-08-04T07:52:53.172Z,32.60
2018-08-04T07:55:21.602Z,32.20
2018-08-04T07:57:49.992Z,32.40
2018-08-04T08:00:18.419Z,31.70
2018-08-04T08:02:46.854Z,32.10
2018-08-04T08:05:15.268Z,31.70
2018-08-04T08:07:43.687Z,33.70
2018-08-04T08:10:12.072Z,32.30
2018-08-04T08:12:40.499Z,31.70
2018-08-04T08:15:09.441Z,32.20
2018-08-04T08:17:37.962Z,32.70
2018-08-04T08:20:06.600Z,31.90
2018-08-04T08:22:39.598Z,31.60
2018-08-04T08:25:08.601Z,30.80
2018-08-04T08:27:37.514Z,30.70
2018-08-04T08:30:12.495Z,30.00
2018-08-04T08:32:40.986Z,30.00
2018-08-04T08:35:09.874Z,30.20
2018-08-04T08:37:38.368Z,32.00
2018-08-04T08:40:07.571Z,29.90
2018-08-04T08:42:36.015Z,30.10
2018-08-04T08:45:05.115Z,29.60
2018-08-04T08:47:33.589Z,29.90
2018-08-04T08:50:01.979Z,30.40
2018-08-04T08:52:30.367Z,29.60
2018-08-04T08:54:58.781Z,29.20
2018-08-04T08:57:27.159Z,29.20
2018-08-04T08:59:55.543Z,29.20
2018-08-04T09:04:52.036Z,29.40
2018-08-04T09:07:20.425Z,29.00
2018-08-04T09:09:48.825Z,29.50
2018-08-04T09:12:17.281Z,28.70
2018-08-04T09:14:45.649Z,28.90
2018-08-04T09:17:14.178Z,29.20
2018-08-04T09:19:42.614Z,28.40
2018-08-04T09:22:11.006Z,28.70
2018-08-04T09:24:39.409Z,28.20
2018-08-04T09:27:07.809Z,28.70
2018-08-04T09:29:36.216Z,28.00
2018-08-04T09:32:04.664Z,28.10
2018-08-04T09:34:33.148Z,27.70
2018-08-04T09:37:01.565Z,27.50
2018-08-04T09:39:29.936Z,28.10
2018-08-04T09:41:58.316Z,27.60
2018-08-04T09:44:26.709Z,29.10
2018-08-04T09:46:55.154Z,28.80
2018-08-04T09:49:23.543Z,28.90
2018-08-04T09:51:51.996Z,29.10
2018-08-04T09:54:20.496Z,28.50
2018-08-04T10:01:45.008Z,28.90
2018-08-04T10:04:13.442Z,30.00
2018-08-04T10:06:41.848Z,28.20
2018-08-04T10:09:11.436Z,27.20
2018-08-04T10:11:40.044Z,27.50
2018-08-04T10:14:08.473Z,28.80
2018-08-04T10:16:36.897Z,28.00
2018-08-04T10:19:05.310Z,27.70
2018-08-04T10:21:33.670Z,27.10
2018-08-04T10:24:02.117Z,27.00
2018-08-04T10:26:30.498Z,27.10
2018-08-04T10:28:58.892Z,26.60
2018-08-04T10:31:27.298Z,26.40
2018-08-04T10:33:55.616Z,26.10
2018-08-04T10:36:24.017Z,26.40
2018-08-04T10:38:52.438Z,26.50
2018-08-04T10:41:20.806Z,26.20
2018-08-04T10:43:49.215Z,27.30
2018-08-04T10:46:17.635Z,30.80
2018-08-04T10:48:46.025Z,31.50
2018-08-04T10:51:14.387Z,30.60
2018-08-04T10:53:42.775Z,29.70
2018-08-04T10:56:11.187Z,28.40
2018-08-04T10:58:39.657Z,30.70
2018-08-04T11:01:08.077Z,31.40
2018-08-04T11:03:36.483Z,31.30
2018-08-04T11:06:04.871Z,30.00
2018-08-04T11:08:33.242Z,29.20
2018-08-04T11:11:01.605Z,28.20
2018-08-04T11:13:30.001Z,27.40
2018-08-04T11:15:58.366Z,26.90
2018-08-04T11:18:26.776Z,26.80
2018-08-04T11:20:55.199Z,30.00
2018-08-04T11:23:23.595Z,32.30
2018-08-04T11:25:51.984Z,31.60
2018-08-04T11:28:20.410Z,30.00
2018-08-04T11:30:48.893Z,29.00
2018-08-04T11:33:17.265Z,27.40
2018-08-04T11:35:45.700Z,27.50
2018-08-04T11:38:14.340Z,27.90
2018-08-04T11:40:42.716Z,27.60
2018-08-04T11:43:11.197Z,27.10
2018-08-04T11:45:39.698Z,26.50
2018-08-04T11:48:08.052Z,26.40
2018-08-04T11:50:36.476Z,27.10
2018-08-04T11:53:05.227Z,26.90
2018-08-04T11:55:33.622Z,26.30
2018-08-04T11:58:02.193Z,26.00
2018-08-04T12:00:30.611Z,26.20
2018-08-04T12:02:59.003Z,27.00
2018-08-04T12:05:27.513Z,28.20
2018-08-04T12:07:55.821Z,29.60
2018-08-04T12:10:24.247Z,29.10
2018-08-04T12:12:52.651Z,29.50
2018-08-04T12:15:21.045Z,29.10
2018-08-04T12:17:49.445Z,29.50
2018-08-04T12:20:17.842Z,29.40
2018-08-04T12:22:46.303Z,29.00
2018-08-04T12:27:42.892Z,28.60
2018-08-04T12:30:11.324Z,28.30
2018-08-04T12:32:39.746Z,28.00
2018-08-04T12:35:08.791Z,27.70
2018-08-04T12:37:37.268Z,27.20
2018-08-04T12:40:05.776Z,27.30
2018-08-04T12:42:34.192Z,28.20
2018-08-04T12:45:02.813Z,27.80
2018-08-04T12:47:31.256Z,27.10
2018-08-04T12:49:59.801Z,27.50
2018-08-04T12:52:28.241Z,27.90
2018-08-04T12:54:56.628Z,28.80
2018-08-04T12:57:25.081Z,29.70
2018-08-04T12:59:53.518Z,30.10
2018-08-04T13:04:50.066Z,31.10
2018-08-04T13:07:18.448Z,31.40
2018-08-04T13:09:46.842Z,30.90
2018-08-04T13:12:15.252Z,31.30
2018-08-04T13:14:43.660Z,30.20
2018-08-04T13:17:12.088Z,30.50
2018-08-04T13:19:40.475Z,30.50
2018-08-04T13:22:08.893Z,31.30
2018-08-04T13:24:37.297Z,30.30
2018-08-04T13:27:05.696Z,30.00
2018-08-04T13:32:02.214Z,29.80
2018-08-04T13:34:30.623Z,29.90
2018-08-04T13:36:59.081Z,30.70
2018-08-04T13:39:27.429Z,31.00
2018-08-04T13:41:55.885Z,30.50
2018-08-04T13:44:24.314Z,30.30
2018-08-04T13:46:52.767Z,30.70
2018-08-04T13:49:21.199Z,30.20
2018-08-04T13:51:49.615Z,30.10
2018-08-04T13:54:18.057Z,29.90
2018-08-04T13:56:46.531Z,30.40
2018-08-04T13:59:14.993Z,30.50
2018-08-04T14:01:43.376Z,31.90
2018-08-04T14:04:11.806Z,32.30
2018-08-04T14:06:40.202Z,33.10
2018-08-04T14:09:10.051Z,32.40
2018-08-04T14:11:38.482Z,35.20
2018-08-04T14:14:06.908Z,34.10
2018-08-04T14:16:35.305Z,34.30
2018-08-04T14:19:03.700Z,34.10
2018-08-04T14:21:32.193Z,32.00
2018-08-04T14:24:00.611Z,32.20
2018-08-04T14:26:29.032Z,33.30
2018-08-04T14:28:57.433Z,31.10
2018-08-04T14:31:25.934Z,31.60
2018-08-04T14:33:54.348Z,33.50
2018-08-04T14:36:22.776Z,31.00
2018-08-04T14:38:51.194Z,29.90
2018-08-04T14:41:19.560Z,29.60
2018-08-04T14:43:47.972Z,29.50
2018-08-04T14:46:16.445Z,29.80
2018-08-04T14:48:44.802Z,29.80
2018-08-04T14:51:13.218Z,28.70
2018-08-04T14:53:41.592Z,29.10
2018-08-04T14:56:09.988Z,29.30
2018-08-04T14:58:38.448Z,29.30
2018-08-04T15:01:07.076Z,29.60
2018-08-04T15:03:35.496Z,29.60
2018-08-04T15:06:03.860Z,29.40
2018-08-04T15:08:32.237Z,29.70
2018-08-04T15:11:00.671Z,29.70
2018-08-04T15:18:25.187Z,30.90
2018-08-04T15:20:53.567Z,30.20
2018-08-04T15:23:21.988Z,31.20
2018-08-04T15:25:50.392Z,30.60
2018-08-04T15:28:18.820Z,30.70
2018-08-04T15:30:47.219Z,30.10
2018-08-04T15:33:15.609Z,30.40
2018-08-04T15:35:43.994Z,30.80
2018-08-04T15:38:12.368Z,31.60
2018-08-04T15:40:40.743Z,31.80
2018-08-04T15:43:09.136Z,32.50
2018-08-04T15:45:37.548Z,32.30
2018-08-04T15:48:06.046Z,31.90
2018-08-04T15:50:34.373Z,31.90
2018-08-04T15:53:02.800Z,31.50
2018-08-04T15:55:31.200Z,31.70
2018-08-04T15:57:59.584Z,31.90
2018-08-04T16:00:27.995Z,31.50
2018-08-04T16:02:56.357Z,31.80
2018-08-04T16:05:24.727Z,31.90
2018-08-04T16:07:53.094Z,32.30
2018-08-04T16:10:21.464Z,32.70
2018-08-04T16:15:17.911Z,31.90
2018-08-04T16:20:15.969Z,30.80
2018-08-04T16:22:44.442Z,31.30
2018-08-04T16:25:13.332Z,31.90
2018-08-04T16:27:42.056Z,32.70
2018-08-04T16:30:10.697Z,31.50
2018-08-04T16:32:39.832Z,32.10
2018-08-04T16:35:09.031Z,31.70
2018-08-04T16:37:37.382Z,32.10
2018-08-04T16:40:06.347Z,32.30
2018-08-04T16:42:35.154Z,31.90
2018-08-04T16:45:04.468Z,32.50
2018-08-04T16:47:32.812Z,31.70
2018-08-04T16:50:01.237Z,32.30
2018-08-04T16:52:29.619Z,31.40
2018-08-04T16:54:57.991Z,31.30
2018-08-04T16:57:26.363Z,31.80
2018-08-04T16:59:54.711Z,32.00
2018-08-04T17:02:23.106Z,32.40
2018-08-04T17:04:51.473Z,32.70
2018-08-04T17:07:19.971Z,32.90
2018-08-04T17:09:48.317Z,33.40
2018-08-04T17:12:16.757Z,32.70
2018-08-04T17:17:13.262Z,32.60
2018-08-04T17:19:41.618Z,32.80
2018-08-04T17:22:10.087Z,33.10
2018-08-04T17:24:38.446Z,33.40
2018-08-04T17:27:06.853Z,34.10
2018-08-04T17:29:35.220Z,34.00
2018-08-04T17:34:31.623Z,33.90
2018-08-04T17:37:00.183Z,34.30
2018-08-04T17:39:28.533Z,35.10
2018-08-04T17:41:56.895Z,34.60
2018-08-04T17:44:25.277Z,35.10
2018-08-04T17:46:53.636Z,35.40
2018-08-04T17:49:22.028Z,35.20
2018-08-04T17:51:50.367Z,34.70
2018-08-04T17:54:18.709Z,35.20
2018-08-04T17:56:47.119Z,35.50
2018-08-04T17:59:15.570Z,36.00
2018-08-04T18:01:43.907Z,36.10
2018-08-04T18:04:12.308Z,36.10
2018-08-04T18:06:40.672Z,36.60
2018-08-04T18:09:09.749Z,36.60
2018-08-04T18:11:39.048Z,37.30
2018-08-04T18:14:07.757Z,37.00
2018-08-04T18:16:37.548Z,37.80
2018-08-04T18:19:05.975Z,37.60
2018-08-04T18:21:34.354Z,37.90
2018-08-04T18:24:02.796Z,37.90
2018-08-04T18:26:31.136Z,38.30
2018-08-04T18:28:59.519Z,38.60
2018-08-04T18:31:27.982Z,38.90
2018-08-04T18:33:56.552Z,39.40
2018-08-04T18:36:24.866Z,39.50
2018-08-04T18:38:53.284Z,39.80
2018-08-04T18:41:21.685Z,40.10
2018-08-04T18:43:50.044Z,40.30
2018-08-04T18:46:18.364Z,40.50
2018-08-04T18:48:46.819Z,40.90
2018-08-04T18:51:15.196Z,41.10
2018-08-04T18:53:43.645Z,41.30
2018-08-04T18:56:11.963Z,41.60
2018-08-04T18:58:40.419Z,41.80
2018-08-04T19:01:08.768Z,41.70
2018-08-04T19:03:37.118Z,42.50
2018-08-04T19:06:05.650Z,42.50
2018-08-04T19:08:34.191Z,42.30
2018-08-04T19:11:02.578Z,42.70
2018-08-04T19:13:30.955Z,43.00
2018-08-04T19:15:59.410Z,43.00
2018-08-04T19:18:28.015Z,43.50
2018-08-04T19:20:56.483Z,43.40
2018-08-04T19:23:24.893Z,43.60
2018-08-04T19:25:53.573Z,43.60
2018-08-04T19:28:22.014Z,44.30
2018-08-04T19:30:50.388Z,44.00
2018-08-04T19:33:18.798Z,43.90
2018-08-04T19:35:47.174Z,44.20
2018-08-04T19:38:15.578Z,44.30
2018-08-04T19:40:43.956Z,44.50
2018-08-04T19:43:12.369Z,44.60
2018-08-04T19:45:40.795Z,44.70
2018-08-04T19:48:09.563Z,44.60
2018-08-04T19:50:38.190Z,44.80
2018-08-04T19:53:06.735Z,44.90
2018-08-04T19:55:36.085Z,45.00
2018-08-04T19:58:04.588Z,45.10
2018-08-04T20:00:32.998Z,45.40
2018-08-04T20:03:01.392Z,45.20
2018-08-04T20:05:29.784Z,45.50
2018-08-04T20:07:58.206Z,45.40
2018-08-04T20:10:26.595Z,45.40
2018-08-04T20:12:57.774Z,45.50
2018-08-04T20:15:27.686Z,45.90
2018-08-04T20:17:56.093Z,46.10
2018-08-04T20:20:24.830Z,46.30
2018-08-04T20:22:53.265Z,46.50
2018-08-04T20:25:21.683Z,46.50
2018-08-04T20:27:50.104Z,46.90
2018-08-04T20:30:18.535Z,47.60
2018-08-04T20:32:46.958Z,47.20
2018-08-04T20:35:15.382Z,47.50
2018-08-04T20:37:43.791Z,47.70
2018-08-04T20:40:12.208Z,47.70
2018-08-04T20:42:40.581Z,48.00
2018-08-04T20:45:08.997Z,47.90
2018-08-04T20:47:37.607Z,47.80
2018-08-04T20:50:06.806Z,48.00
2018-08-04T20:52:35.380Z,48.10
2018-08-04T20:55:03.816Z,48.20
2018-08-04T20:57:32.216Z,48.30
2018-08-04T21:00:00.568Z,48.60
2018-08-04T21:02:28.989Z,48.30
2018-08-04T21:04:57.417Z,48.50
2018-08-04T21:07:25.867Z,48.20
2018-08-04T21:09:54.443Z,48.40
2018-08-04T21:12:22.840Z,48.10
2018-08-04T21:14:51.290Z,48.10
2018-08-04T21:17:19.927Z,48.00
2018-08-04T21:19:48.305Z,48.30
2018-08-04T21:22:16.877Z,48.20
2018-08-04T21:24:45.233Z,48.40
2018-08-04T21:27:13.848Z,48.40
2018-08-04T21:29:42.228Z,48.60
2018-08-04T21:32:10.920Z,48.30
2018-08-04T21:34:39.822Z,48.20
2018-08-04T21:37:08.287Z,48.60
2018-08-04T21:39:36.707Z,48.60
2018-08-04T21:42:05.132Z,48.80
2018-08-04T21:44:35.809Z,48.90
2018-08-04T21:47:04.294Z,49.00
2018-08-04T21:49:32.709Z,49.10
2018-08-04T21:52:01.080Z,49.10
2018-08-04T21:54:29.447Z,49.40
2018-08-04T21:56:57.881Z,49.40
2018-08-04T21:59:26.243Z,49.90
2018-08-04T22:01:56.170Z,50.10
2018-08-04T22:04:25.094Z,50.10
2018-08-04T22:08:03.877Z,49.90
2018-08-04T22:13:00.508Z,50.70
2018-08-04T22:15:29.061Z,50.70
2018-08-04T22:17:57.776Z,50.40
2018-08-04T22:20:26.788Z,51.00
2018-08-04T22:22:55.204Z,50.70
2018-08-04T22:25:24.814Z,51.00
2018-08-04T22:27:53.650Z,51.10
2018-08-04T22:30:22.524Z,51.30
2018-08-04T22:32:51.411Z,51.40
2018-08-04T22:35:19.992Z,51.60
2018-08-04T22:37:48.420Z,51.60
2018-08-04T22:40:17.638Z,51.80
2018-08-04T22:42:46.082Z,52.00
2018-08-04T22:48:19.880Z,52.40
2018-08-04T22:50:48.254Z,52.30
2018-08-04T22:53:17.271Z,52.60
2018-08-04T22:55:45.662Z,52.70
2018-08-04T22:58:14.186Z,52.60
2018-08-04T23:00:43.393Z,52.80
2018-08-04T23:03:12.631Z,53.00
2018-08-04T23:05:41.104Z,53.00
2018-08-04T23:08:10.230Z,53.10
2018-08-04T23:10:39.288Z,53.70
2018-08-04T23:13:08.391Z,54.00
2018-08-04T23:15:36.804Z,54.00
2018-08-04T23:18:05.280Z,54.50
2018-08-04T23:20:33.685Z,54.60
2018-08-04T23:23:02.067Z,54.50
2018-08-04T23:25:30.475Z,54.40
2018-08-04T23:27:58.851Z,54.90
2018-08-04T23:30:27.193Z,54.80
2018-08-04T23:32:55.826Z,55.00
2018-08-04T23:35:25.361Z,55.00
2018-08-04T23:40:22.188Z,55.80
2018-08-04T23:42:50.601Z,56.10
2018-08-04T23:45:19.136Z,55.60
2018-08-04T23:47:47.499Z,55.40
2018-08-04T23:50:15.941Z,55.90
2018-08-04T23:52:44.355Z,55.90
2018-08-04T23:55:12.773Z,56.00
2018-08-04T23:57:41.165Z,56.10
